sensor_id;sensor_type;location;lat;lon;timestamp;P1;durP1;ratioP1;P2;durP2;ratioP2
7675;SDS011;3880;51.464;-2.566;2022-07-10T00:00:06;6.83;;;1.67;;
7675;SDS011;3880;51.464;-2.566;2022-07-10T00:02:36;1.70;;;1.60;;
7675;SDS011;3880;51.464;-2.566;2022-07-10T00:05:03;1.03;;;1.03;;
7675;SDS011;3880;51.464;-2.566;2022-07-10T00:07:31;1.33;;;1.23;;
7675;SDS011;3880;51.464;-2.566;2022-07-10T00:09:58;1.30;;;1.10;;
7675;SDS011;3880;51.464;-2.566;2022-07-10T00:12:27;2.40;;;1.17;;
7675;SDS011;3880;51.464;-2.566;2022-07-10T00:14:54;2.80;;;1.20;;
7675;SDS011;3880;51.464;-2.566;2022-07-10T00:17:21;1.50;;;1.10;;
7675;SDS011;3880;51.464;-2.566;2022-07-10T00:19:48;1.27;;;1.17;;
7675;SDS011;3880;51.464;-2.566;2022-07-10T00:22:15;1.57;;;1.00;;
7675;SDS011;3880;51.464;-2.566;2022-07-10T00:24:42;1.93;;;1.70;;
7675;SDS011;3880;51.464;-2.566;2022-07-10T00:27:09;2.20;;;1.20;;
7675;SDS011;3880;51.464;-2.566;2022-07-10T00:29:38;1.13;;;1.00;;
7675;SDS011;3880;51.464;-2.566;2022-07-10T00:32:05;4.97;;;1.60;;
7675;SDS011;3880;51.464;-2.566;2022-07-10T00:34:32;1.00;;;1.00;;
7675;SDS011;3880;51.464;-2.566;2022-07-10T00:37:00;1.30;;;1.20;;
7675;SDS011;3880;51.464;-2.566;2022-07-10T00:39:27;1.20;;;1.10;;
7675;SDS011;3880;51.464;-2.566;2022-07-10T00:41:54;1.43;;;1.07;;
7675;SDS011;3880;51.464;-2.566;2022-07-10T00:44:21;4.80;;;1.47;;
7675;SDS011;3880;51.464;-2.566;2022-07-10T00:46:49;1.50;;;1.40;;
7675;SDS011;3880;51.464;-2.566;2022-07-10T00:49:16;1.30;;;1.20;;
7675;SDS011;3880;51.464;-2.566;2022-07-10T00:51:43;1.30;;;1.30;;
7675;SDS011;3880;51.464;-2.566;2022-07-10T00:54:10;1.50;;;1.40;;
7675;SDS011;3880;51.464;-2.566;2022-07-10T00:56:37;1.90;;;1.80;;
7675;SDS011;3880;51.464;-2.566;2022-07-10T00:59:05;1.40;;;1.30;;
7675;SDS011;3880;51.464;-2.566;2022-07-10T01:01:32;3.67;;;1.43;;
7675;SDS011;3880;51.464;-2.566;2022-07-10T01:04:01;1.70;;;1.50;;
7675;SDS011;3880;51.464;-2.566;2022-07-10T01:06:28;1.57;;;1.47;;
7675;SDS011;3880;51.464;-2.566;2022-07-10T01:08:55;1.40;;;1.40;;
7675;SDS011;3880;51.464;-2.566;2022-07-10T01:11:22;1.77;;;1.63;;
7675;SDS011;3880;51.464;-2.566;2022-07-10T01:13:49;1.93;;;1.50;;
7675;SDS011;3880;51.464;-2.566;2022-07-10T01:16:16;2.80;;;1.80;;
7675;SDS011;3880;51.464;-2.566;2022-07-10T01:18:43;2.53;;;1.80;;
7675;SDS011;3880;51.464;-2.566;2022-07-10T01:21:24;1.30;;;1.30;;
7675;SDS011;3880;51.464;-2.566;2022-07-10T01:23:52;1.43;;;1.33;;
7675;SDS011;3880;51.464;-2.566;2022-07-10T01:26:20;2.30;;;1.60;;
7675;SDS011;3880;51.464;-2.566;2022-07-10T01:28:48;2.67;;;1.50;;
7675;SDS011;3880;51.464;-2.566;2022-07-10T01:31:16;1.80;;;1.70;;
7675;SDS011;3880;51.464;-2.566;2022-07-10T01:33:44;1.70;;;1.60;;
7675;SDS011;3880;51.464;-2.566;2022-07-10T01:36:11;1.40;;;1.40;;
7675;SDS011;3880;51.464;-2.566;2022-07-10T01:38:39;1.87;;;1.33;;
7675;SDS011;3880;51.464;-2.566;2022-07-10T01:41:06;1.47;;;1.37;;
7675;SDS011;3880;51.464;-2.566;2022-07-10T01:43:34;2.07;;;1.80;;
7675;SDS011;3880;51.464;-2.566;2022-07-10T01:46:01;3.50;;;1.83;;
7675;SDS011;3880;51.464;-2.566;2022-07-10T01:48:28;1.60;;;1.50;;
7675;SDS011;3880;51.464;-2.566;2022-07-10T01:50:56;3.17;;;1.80;;
7675;SDS011;3880;51.464;-2.566;2022-07-10T01:53:23;1.80;;;1.70;;
7675;SDS011;3880;51.464;-2.566;2022-07-10T01:55:51;1.93;;;1.83;;
7675;SDS011;3880;51.464;-2.566;2022-07-10T01:58:18;2.60;;;2.23;;
7675;SDS011;3880;51.464;-2.566;2022-07-10T02:00:45;2.67;;;2.47;;
7675;SDS011;3880;51.464;-2.566;2022-07-10T02:03:12;2.10;;;2.00;;
7675;SDS011;3880;51.464;-2.566;2022-07-10T02:05:57;2.10;;;1.90;;
7675;SDS011;3880;51.464;-2.566;2022-07-10T02:08:24;2.00;;;1.90;;
7675;SDS011;3880;51.464;-2.566;2022-07-10T02:10:52;2.80;;;1.93;;
7675;SDS011;3880;51.464;-2.566;2022-07-10T02:13:19;2.50;;;2.07;;
7675;SDS011;3880;51.464;-2.566;2022-07-10T02:15:46;2.33;;;2.13;;
7675;SDS011;3880;51.464;-2.566;2022-07-10T02:18:13;1.70;;;1.60;;
7675;SDS011;3880;51.464;-2.566;2022-07-10T02:20:40;1.73;;;1.63;;
7675;SDS011;3880;51.464;-2.566;2022-07-10T02:23:07;2.20;;;2.00;;
7675;SDS011;3880;51.464;-2.566;2022-07-10T02:25:34;1.97;;;1.87;;
7675;SDS011;3880;51.464;-2.566;2022-07-10T02:28:03;1.27;;;1.27;;
7675;SDS011;3880;51.464;-2.566;2022-07-10T02:30:31;3.80;;;1.70;;
7675;SDS011;3880;51.464;-2.566;2022-07-10T02:32:58;3.00;;;2.20;;
7675;SDS011;3880;51.464;-2.566;2022-07-10T02:35:25;2.93;;;1.80;;
7675;SDS011;3880;51.464;-2.566;2022-07-10T02:37:52;1.80;;;1.70;;
7675;SDS011;3880;51.464;-2.566;2022-07-10T02:40:19;1.83;;;1.73;;
7675;SDS011;3880;51.464;-2.566;2022-07-10T02:42:46;2.27;;;1.90;;
7675;SDS011;3880;51.464;-2.566;2022-07-10T02:45:14;2.20;;;2.10;;
7675;SDS011;3880;51.464;-2.566;2022-07-10T02:47:41;2.00;;;1.90;;
7675;SDS011;3880;51.464;-2.566;2022-07-10T02:50:09;2.33;;;2.23;;
7675;SDS011;3880;51.464;-2.566;2022-07-10T02:52:35;1.90;;;1.80;;
7675;SDS011;3880;51.464;-2.566;2022-07-10T02:55:03;1.93;;;1.83;;
7675;SDS011;3880;51.464;-2.566;2022-07-10T02:57:30;6.17;;;2.03;;
7675;SDS011;3880;51.464;-2.566;2022-07-10T02:59:57;2.07;;;1.97;;
7675;SDS011;3880;51.464;-2.566;2022-07-10T03:02:25;2.10;;;1.90;;
7675;SDS011;3880;51.464;-2.566;2022-07-10T03:04:52;2.00;;;1.90;;
7675;SDS011;3880;51.464;-2.566;2022-07-10T03:07:19;2.10;;;2.00;;
7675;SDS011;3880;51.464;-2.566;2022-07-10T03:09:46;2.10;;;1.80;;
7675;SDS011;3880;51.464;-2.566;2022-07-10T03:12:13;1.97;;;1.87;;
7675;SDS011;3880;51.464;-2.566;2022-07-10T03:14:40;10.47;;;8.03;;
7675;SDS011;3880;51.464;-2.566;2022-07-10T03:17:07;9.10;;;6.57;;
7675;SDS011;3880;51.464;-2.566;2022-07-10T03:19:36;3.67;;;3.37;;
7675;SDS011;3880;51.464;-2.566;2022-07-10T03:22:03;2.30;;;2.20;;
7675;SDS011;3880;51.464;-2.566;2022-07-10T03:24:30;1.93;;;1.83;;
7675;SDS011;3880;51.464;-2.566;2022-07-10T03:26:58;2.07;;;1.87;;
7675;SDS011;3880;51.464;-2.566;2022-07-10T03:29:25;2.03;;;1.93;;
7675;SDS011;3880;51.464;-2.566;2022-07-10T03:31:52;2.27;;;2.00;;
7675;SDS011;3880;51.464;-2.566;2022-07-10T03:34:19;2.20;;;2.00;;
7675;SDS011;3880;51.464;-2.566;2022-07-10T03:36:48;2.27;;;1.97;;
7675;SDS011;3880;51.464;-2.566;2022-07-10T03:39:16;9.93;;;5.20;;
7675;SDS011;3880;51.464;-2.566;2022-07-10T03:41:43;5.47;;;3.93;;
7675;SDS011;3880;51.464;-2.566;2022-07-10T03:44:10;6.23;;;3.87;;
7675;SDS011;3880;51.464;-2.566;2022-07-10T03:46:38;8.60;;;4.17;;
7675;SDS011;3880;51.464;-2.566;2022-07-10T03:49:05;2.30;;;2.10;;
7675;SDS011;3880;51.464;-2.566;2022-07-10T03:51:32;1.77;;;1.63;;
7675;SDS011;3880;51.464;-2.566;2022-07-10T03:54:01;4.83;;;2.00;;
7675;SDS011;3880;51.464;-2.566;2022-07-10T03:56:28;4.17;;;2.40;;
7675;SDS011;3880;51.464;-2.566;2022-07-10T03:59:13;2.50;;;2.30;;
7675;SDS011;3880;51.464;-2.566;2022-07-10T04:01:40;2.60;;;2.40;;
7675;SDS011;3880;51.464;-2.566;2022-07-10T04:04:07;2.77;;;2.57;;
7675;SDS011;3880;51.464;-2.566;2022-07-10T04:06:34;2.93;;;2.73;;
7675;SDS011;3880;51.464;-2.566;2022-07-10T04:09:05;2.77;;;2.30;;
7675;SDS011;3880;51.464;-2.566;2022-07-10T04:11:32;2.10;;;2.00;;
7675;SDS011;3880;51.464;-2.566;2022-07-10T04:14:00;2.60;;;2.40;;
7675;SDS011;3880;51.464;-2.566;2022-07-10T04:16:27;2.30;;;2.10;;
7675;SDS011;3880;51.464;-2.566;2022-07-10T04:18:54;10.30;;;3.37;;
7675;SDS011;3880;51.464;-2.566;2022-07-10T04:21:21;2.43;;;2.23;;
7675;SDS011;3880;51.464;-2.566;2022-07-10T04:23:48;3.07;;;2.77;;
7675;SDS011;3880;51.464;-2.566;2022-07-10T04:26:17;3.97;;;3.57;;
7675;SDS011;3880;51.464;-2.566;2022-07-10T04:28:44;2.83;;;2.63;;
7675;SDS011;3880;51.464;-2.566;2022-07-10T04:31:12;4.33;;;3.27;;
7675;SDS011;3880;51.464;-2.566;2022-07-10T04:33:39;3.53;;;2.60;;
7675;SDS011;3880;51.464;-2.566;2022-07-10T04:36:07;2.87;;;2.67;;
7675;SDS011;3880;51.464;-2.566;2022-07-10T04:38:34;2.53;;;2.33;;
7675;SDS011;3880;51.464;-2.566;2022-07-10T04:41:02;2.50;;;2.30;;
7675;SDS011;3880;51.464;-2.566;2022-07-10T04:43:31;3.80;;;2.27;;
7675;SDS011;3880;51.464;-2.566;2022-07-10T04:45:59;2.10;;;2.00;;
7675;SDS011;3880;51.464;-2.566;2022-07-10T04:48:26;3.30;;;2.40;;
7675;SDS011;3880;51.464;-2.566;2022-07-10T04:50:53;3.03;;;2.57;;
7675;SDS011;3880;51.464;-2.566;2022-07-10T04:53:21;2.57;;;2.37;;
7675;SDS011;3880;51.464;-2.566;2022-07-10T04:55:48;2.77;;;2.57;;
7675;SDS011;3880;51.464;-2.566;2022-07-10T04:58:15;2.93;;;2.73;;
7675;SDS011;3880;51.464;-2.566;2022-07-10T05:00:44;2.37;;;2.17;;
7675;SDS011;3880;51.464;-2.566;2022-07-10T05:03:14;2.90;;;2.57;;
7675;SDS011;3880;51.464;-2.566;2022-07-10T05:05:41;3.10;;;2.70;;
7675;SDS011;3880;51.464;-2.566;2022-07-10T05:08:09;2.30;;;2.20;;
7675;SDS011;3880;51.464;-2.566;2022-07-10T05:10:36;3.90;;;2.93;;
7675;SDS011;3880;51.464;-2.566;2022-07-10T05:13:05;3.37;;;2.33;;
7675;SDS011;3880;51.464;-2.566;2022-07-10T05:15:32;3.37;;;2.97;;
7675;SDS011;3880;51.464;-2.566;2022-07-10T05:18:01;2.70;;;2.50;;
7675;SDS011;3880;51.464;-2.566;2022-07-10T05:20:28;3.07;;;2.77;;
7675;SDS011;3880;51.464;-2.566;2022-07-10T05:22:55;6.33;;;3.50;;
7675;SDS011;3880;51.464;-2.566;2022-07-10T05:25:23;5.50;;;4.33;;
7675;SDS011;3880;51.464;-2.566;2022-07-10T05:27:54;5.90;;;3.80;;
7675;SDS011;3880;51.464;-2.566;2022-07-10T05:30:22;4.20;;;3.53;;
7675;SDS011;3880;51.464;-2.566;2022-07-10T05:32:49;3.67;;;3.30;;
7675;SDS011;3880;51.464;-2.566;2022-07-10T05:35:18;5.73;;;3.80;;
7675;SDS011;3880;51.464;-2.566;2022-07-10T05:37:45;4.60;;;3.70;;
7675;SDS011;3880;51.464;-2.566;2022-07-10T05:40:12;4.33;;;3.87;;
7675;SDS011;3880;51.464;-2.566;2022-07-10T05:42:40;4.13;;;3.80;;
7675;SDS011;3880;51.464;-2.566;2022-07-10T05:45:07;5.87;;;4.07;;
7675;SDS011;3880;51.464;-2.566;2022-07-10T05:47:35;4.40;;;4.00;;
7675;SDS011;3880;51.464;-2.566;2022-07-10T05:50:02;4.70;;;4.13;;
7675;SDS011;3880;51.464;-2.566;2022-07-10T05:52:32;6.23;;;5.13;;
7675;SDS011;3880;51.464;-2.566;2022-07-10T05:55:03;7.30;;;5.33;;
7675;SDS011;3880;51.464;-2.566;2022-07-10T05:57:31;9.20;;;6.63;;
7675;SDS011;3880;51.464;-2.566;2022-07-10T05:59:58;6.93;;;6.23;;
7675;SDS011;3880;51.464;-2.566;2022-07-10T06:02:26;7.87;;;6.60;;
7675;SDS011;3880;51.464;-2.566;2022-07-10T06:04:53;7.73;;;6.37;;
7675;SDS011;3880;51.464;-2.566;2022-07-10T06:07:21;9.83;;;7.13;;
7675;SDS011;3880;51.464;-2.566;2022-07-10T06:09:50;8.27;;;7.33;;
7675;SDS011;3880;51.464;-2.566;2022-07-10T06:12:17;8.90;;;6.87;;
7675;SDS011;3880;51.464;-2.566;2022-07-10T06:14:44;10.57;;;8.70;;
7675;SDS011;3880;51.464;-2.566;2022-07-10T06:17:12;9.37;;;7.77;;
7675;SDS011;3880;51.464;-2.566;2022-07-10T06:19:39;9.57;;;8.67;;
7675;SDS011;3880;51.464;-2.566;2022-07-10T06:22:07;12.40;;;9.73;;
7675;SDS011;3880;51.464;-2.566;2022-07-10T06:24:53;12.07;;;10.27;;
7675;SDS011;3880;51.464;-2.566;2022-07-10T06:27:20;10.63;;;9.63;;
7675;SDS011;3880;51.464;-2.566;2022-07-10T06:29:48;10.80;;;9.80;;
7675;SDS011;3880;51.464;-2.566;2022-07-10T06:32:15;9.83;;;8.93;;
7675;SDS011;3880;51.464;-2.566;2022-07-10T06:34:42;10.37;;;9.37;;
7675;SDS011;3880;51.464;-2.566;2022-07-10T06:37:10;13.60;;;10.30;;
7675;SDS011;3880;51.464;-2.566;2022-07-10T06:39:37;12.33;;;9.80;;
7675;SDS011;3880;51.464;-2.566;2022-07-10T06:42:06;10.93;;;9.77;;
7675;SDS011;3880;51.464;-2.566;2022-07-10T06:44:34;10.93;;;9.80;;
7675;SDS011;3880;51.464;-2.566;2022-07-10T06:47:01;11.00;;;9.90;;
7675;SDS011;3880;51.464;-2.566;2022-07-10T06:49:46;10.17;;;9.17;;
7675;SDS011;3880;51.464;-2.566;2022-07-10T06:52:18;10.00;;;9.07;;
7675;SDS011;3880;51.464;-2.566;2022-07-10T06:54:46;10.03;;;9.03;;
7675;SDS011;3880;51.464;-2.566;2022-07-10T06:57:15;12.67;;;9.50;;
7675;SDS011;3880;51.464;-2.566;2022-07-10T06:59:43;9.47;;;8.57;;
7675;SDS011;3880;51.464;-2.566;2022-07-10T07:02:10;11.10;;;9.97;;
7675;SDS011;3880;51.464;-2.566;2022-07-10T07:04:38;11.93;;;9.67;;
7675;SDS011;3880;51.464;-2.566;2022-07-10T07:07:05;10.10;;;9.20;;
7675;SDS011;3880;51.464;-2.566;2022-07-10T07:09:33;10.47;;;9.47;;
7675;SDS011;3880;51.464;-2.566;2022-07-10T07:12:01;10.53;;;9.53;;
7675;SDS011;3880;51.464;-2.566;2022-07-10T07:14:30;10.67;;;9.17;;
7675;SDS011;3880;51.464;-2.566;2022-07-10T07:16:58;9.80;;;8.90;;
7675;SDS011;3880;51.464;-2.566;2022-07-10T07:19:28;8.67;;;7.87;;
7675;SDS011;3880;51.464;-2.566;2022-07-10T07:22:19;10.13;;;9.23;;
7675;SDS011;3880;51.464;-2.566;2022-07-10T07:25:15;10.23;;;9.33;;
7675;SDS011;3880;51.464;-2.566;2022-07-10T07:27:42;10.87;;;9.77;;
7675;SDS011;3880;51.464;-2.566;2022-07-10T07:30:11;9.80;;;8.90;;
7675;SDS011;3880;51.464;-2.566;2022-07-10T07:32:40;11.27;;;10.17;;
7675;SDS011;3880;51.464;-2.566;2022-07-10T07:35:08;10.83;;;9.50;;
7675;SDS011;3880;51.464;-2.566;2022-07-10T07:37:36;13.20;;;8.43;;
7675;SDS011;3880;51.464;-2.566;2022-07-10T07:40:06;8.43;;;7.67;;
7675;SDS011;3880;51.464;-2.566;2022-07-10T07:42:35;10.73;;;8.87;;
7675;SDS011;3880;51.464;-2.566;2022-07-10T07:45:03;8.53;;;7.80;;
7675;SDS011;3880;51.464;-2.566;2022-07-10T07:47:43;7.67;;;6.97;;
7675;SDS011;3880;51.464;-2.566;2022-07-10T07:50:11;7.80;;;6.90;;
7675;SDS011;3880;51.464;-2.566;2022-07-10T07:52:38;8.73;;;7.83;;
7675;SDS011;3880;51.464;-2.566;2022-07-10T07:55:06;9.63;;;8.27;;
7675;SDS011;3880;51.464;-2.566;2022-07-10T07:57:33;8.97;;;8.17;;
7675;SDS011;3880;51.464;-2.566;2022-07-10T08:00:00;7.50;;;6.87;;
7675;SDS011;3880;51.464;-2.566;2022-07-10T08:02:27;8.33;;;7.17;;
7675;SDS011;3880;51.464;-2.566;2022-07-10T08:04:56;8.30;;;7.10;;
7675;SDS011;3880;51.464;-2.566;2022-07-10T08:07:23;8.97;;;8.07;;
7675;SDS011;3880;51.464;-2.566;2022-07-10T08:09:58;8.30;;;7.60;;
7675;SDS011;3880;51.464;-2.566;2022-07-10T08:12:25;9.47;;;7.57;;
7675;SDS011;3880;51.464;-2.566;2022-07-10T08:14:52;16.87;;;15.10;;
7675;SDS011;3880;51.464;-2.566;2022-07-10T08:17:19;8.60;;;7.80;;
7675;SDS011;3880;51.464;-2.566;2022-07-10T08:19:46;8.43;;;7.63;;
7675;SDS011;3880;51.464;-2.566;2022-07-10T08:22:15;8.87;;;8.07;;
7675;SDS011;3880;51.464;-2.566;2022-07-10T08:24:42;8.27;;;7.37;;
7675;SDS011;3880;51.464;-2.566;2022-07-10T08:27:09;8.10;;;7.07;;
7675;SDS011;3880;51.464;-2.566;2022-07-10T08:29:37;7.27;;;6.60;;
7675;SDS011;3880;51.464;-2.566;2022-07-10T08:32:04;8.17;;;6.90;;
7675;SDS011;3880;51.464;-2.566;2022-07-10T08:34:31;38.57;;;8.67;;
7675;SDS011;3880;51.464;-2.566;2022-07-10T08:36:58;6.77;;;6.07;;
7675;SDS011;3880;51.464;-2.566;2022-07-10T08:39:27;6.27;;;5.67;;
7675;SDS011;3880;51.464;-2.566;2022-07-10T08:41:54;6.23;;;5.73;;
7675;SDS011;3880;51.464;-2.566;2022-07-10T08:44:21;6.27;;;5.63;;
7675;SDS011;3880;51.464;-2.566;2022-07-10T08:46:48;9.17;;;6.50;;
7675;SDS011;3880;51.464;-2.566;2022-07-10T08:49:16;6.17;;;5.67;;
7675;SDS011;3880;51.464;-2.566;2022-07-10T08:51:45;7.00;;;6.30;;
7675;SDS011;3880;51.464;-2.566;2022-07-10T08:54:18;8.07;;;6.83;;
7675;SDS011;3880;51.464;-2.566;2022-07-10T08:56:48;7.07;;;6.47;;
7675;SDS011;3880;51.464;-2.566;2022-07-10T08:59:16;7.53;;;6.43;;
7675;SDS011;3880;51.464;-2.566;2022-07-10T09:01:44;7.43;;;6.60;;
7675;SDS011;3880;51.464;-2.566;2022-07-10T09:04:15;6.50;;;6.00;;
7675;SDS011;3880;51.464;-2.566;2022-07-10T09:06:44;5.93;;;5.43;;
7675;SDS011;3880;51.464;-2.566;2022-07-10T09:09:11;7.10;;;6.40;;
7675;SDS011;3880;51.464;-2.566;2022-07-10T09:11:39;6.13;;;5.63;;
7675;SDS011;3880;51.464;-2.566;2022-07-10T09:14:09;5.70;;;5.13;;
7675;SDS011;3880;51.464;-2.566;2022-07-10T09:16:38;6.20;;;5.70;;
7675;SDS011;3880;51.464;-2.566;2022-07-10T09:19:16;6.53;;;5.97;;
7675;SDS011;3880;51.464;-2.566;2022-07-10T09:21:45;6.20;;;5.72;;
7675;SDS011;3880;51.464;-2.566;2022-07-10T09:24:13;7.10;;;6.38;;
7675;SDS011;3880;51.464;-2.566;2022-07-10T09:26:42;5.50;;;5.00;;
7675;SDS011;3880;51.464;-2.566;2022-07-10T09:29:12;16.83;;;5.32;;
7675;SDS011;3880;51.464;-2.566;2022-07-10T09:31:48;6.03;;;5.40;;
7675;SDS011;3880;51.464;-2.566;2022-07-10T09:34:16;6.13;;;5.03;;
7675;SDS011;3880;51.464;-2.566;2022-07-10T09:36:44;5.53;;;4.72;;
7675;SDS011;3880;51.464;-2.566;2022-07-10T09:39:11;4.50;;;4.10;;
7675;SDS011;3880;51.464;-2.566;2022-07-10T09:41:38;6.47;;;4.75;;
7675;SDS011;3880;51.464;-2.566;2022-07-10T09:44:05;4.07;;;3.63;;
7675;SDS011;3880;51.464;-2.566;2022-07-10T09:46:35;4.05;;;3.75;;
7675;SDS011;3880;51.464;-2.566;2022-07-10T09:49:07;3.75;;;3.45;;
7675;SDS011;3880;51.464;-2.566;2022-07-10T09:51:35;3.88;;;3.53;;
7675;SDS011;3880;51.464;-2.566;2022-07-10T09:54:05;4.82;;;3.53;;
7675;SDS011;3880;51.464;-2.566;2022-07-10T09:56:38;4.72;;;3.42;;
7675;SDS011;3880;51.464;-2.566;2022-07-10T09:59:08;3.65;;;3.35;;
7675;SDS011;3880;51.464;-2.566;2022-07-10T10:01:38;4.22;;;3.40;;
7675;SDS011;3880;51.464;-2.566;2022-07-10T10:04:10;3.53;;;3.22;;
7675;SDS011;3880;51.464;-2.566;2022-07-10T10:06:38;3.15;;;2.85;;
7675;SDS011;3880;51.464;-2.566;2022-07-10T10:09:07;2.63;;;2.42;;
7675;SDS011;3880;51.464;-2.566;2022-07-10T10:11:39;2.97;;;2.78;;
7675;SDS011;3880;51.464;-2.566;2022-07-10T10:14:09;2.65;;;2.45;;
7675;SDS011;3880;51.464;-2.566;2022-07-10T10:16:39;2.97;;;2.67;;
7675;SDS011;3880;51.464;-2.566;2022-07-10T10:19:11;3.17;;;2.88;;
7675;SDS011;3880;51.464;-2.566;2022-07-10T10:21:56;3.22;;;3.03;;
7675;SDS011;3880;51.464;-2.566;2022-07-10T10:24:24;2.20;;;2.00;;
7675;SDS011;3880;51.464;-2.566;2022-07-10T10:26:52;2.92;;;2.72;;
7675;SDS011;3880;51.464;-2.566;2022-07-10T10:29:20;2.22;;;2.05;;
7675;SDS011;3880;51.464;-2.566;2022-07-10T10:31:48;2.45;;;2.35;;
7675;SDS011;3880;51.464;-2.566;2022-07-10T10:37:05;2.78;;;2.10;;
7675;SDS011;3880;51.464;-2.566;2022-07-10T10:39:42;2.10;;;2.00;;
7675;SDS011;3880;51.464;-2.566;2022-07-10T10:42:31;2.35;;;2.15;;
7675;SDS011;3880;51.464;-2.566;2022-07-10T10:48:04;2.90;;;2.40;;
7675;SDS011;3880;51.464;-2.566;2022-07-10T10:50:37;2.13;;;2.03;;
7675;SDS011;3880;51.464;-2.566;2022-07-10T10:53:11;2.83;;;1.77;;
7675;SDS011;3880;51.464;-2.566;2022-07-10T10:55:39;2.08;;;1.90;;
7675;SDS011;3880;51.464;-2.566;2022-07-10T10:58:16;2.20;;;2.10;;
7675;SDS011;3880;51.464;-2.566;2022-07-10T11:00:45;4.63;;;2.47;;
7675;SDS011;3880;51.464;-2.566;2022-07-10T11:03:15;2.00;;;1.85;;
7675;SDS011;3880;51.464;-2.566;2022-07-10T11:05:47;3.45;;;2.60;;
7675;SDS011;3880;51.464;-2.566;2022-07-10T11:14:08;2.40;;;2.20;;
7675;SDS011;3880;51.464;-2.566;2022-07-10T11:16:37;2.58;;;2.38;;
7675;SDS011;3880;51.464;-2.566;2022-07-10T11:19:21;3.53;;;2.83;;
7675;SDS011;3880;51.464;-2.566;2022-07-10T11:21:54;3.25;;;2.55;;
7675;SDS011;3880;51.464;-2.566;2022-07-10T11:27:34;2.60;;;2.40;;
7675;SDS011;3880;51.464;-2.566;2022-07-10T11:30:18;2.92;;;2.55;;
7675;SDS011;3880;51.464;-2.566;2022-07-10T11:32:47;2.63;;;2.42;;
7675;SDS011;3880;51.464;-2.566;2022-07-10T11:35:17;2.22;;;2.05;;
7675;SDS011;3880;51.464;-2.566;2022-07-10T11:37:50;2.70;;;2.50;;
7675;SDS011;3880;51.464;-2.566;2022-07-10T11:40:37;2.63;;;2.42;;
7675;SDS011;3880;51.464;-2.566;2022-07-10T11:43:15;2.85;;;2.65;;
7675;SDS011;3880;51.464;-2.566;2022-07-10T11:45:53;2.20;;;2.10;;
7675;SDS011;3880;51.464;-2.566;2022-07-10T11:48:29;4.13;;;2.72;;
7675;SDS011;3880;51.464;-2.566;2022-07-10T11:51:25;2.35;;;2.25;;
7675;SDS011;3880;51.464;-2.566;2022-07-10T11:53:58;2.50;;;2.30;;
7675;SDS011;3880;51.464;-2.566;2022-07-10T12:03:15;2.35;;;2.25;;
7675;SDS011;3880;51.464;-2.566;2022-07-10T12:05:44;2.65;;;2.45;;
7675;SDS011;3880;51.464;-2.566;2022-07-10T12:08:13;3.47;;;2.28;;
7675;SDS011;3880;51.464;-2.566;2022-07-10T12:10:41;2.22;;;2.13;;
7675;SDS011;3880;51.464;-2.566;2022-07-10T12:13:08;2.10;;;2.00;;
7675;SDS011;3880;51.464;-2.566;2022-07-10T12:15:37;2.05;;;1.90;;
7675;SDS011;3880;51.464;-2.566;2022-07-10T12:18:06;2.42;;;2.25;;
7675;SDS011;3880;51.464;-2.566;2022-07-10T12:20:34;2.53;;;2.40;;
7675;SDS011;3880;51.464;-2.566;2022-07-10T12:23:02;2.83;;;2.63;;
7675;SDS011;3880;51.464;-2.566;2022-07-10T12:25:31;2.60;;;2.40;;
7675;SDS011;3880;51.464;-2.566;2022-07-10T12:27:58;1.92;;;1.83;;
7675;SDS011;3880;51.464;-2.566;2022-07-10T12:30:37;2.45;;;1.90;;
7675;SDS011;3880;51.464;-2.566;2022-07-10T12:33:09;2.50;;;1.98;;
7675;SDS011;3880;51.464;-2.566;2022-07-10T12:35:47;1.90;;;1.80;;
7675;SDS011;3880;51.464;-2.566;2022-07-10T12:38:16;1.98;;;1.88;;
7675;SDS011;3880;51.464;-2.566;2022-07-10T12:40:46;3.20;;;2.33;;
7675;SDS011;3880;51.464;-2.566;2022-07-10T12:43:23;3.20;;;2.13;;
7675;SDS011;3880;51.464;-2.566;2022-07-10T12:48:36;3.03;;;2.20;;
7675;SDS011;3880;51.464;-2.566;2022-07-10T12:51:32;2.45;;;2.22;;
7675;SDS011;3880;51.464;-2.566;2022-07-10T12:54:00;2.30;;;2.10;;
7675;SDS011;3880;51.464;-2.566;2022-07-10T12:56:41;1.90;;;1.80;;
7675;SDS011;3880;51.464;-2.566;2022-07-10T12:59:23;2.85;;;2.65;;
7675;SDS011;3880;51.464;-2.566;2022-07-10T13:01:52;2.00;;;1.80;;
7675;SDS011;3880;51.464;-2.566;2022-07-10T13:04:22;2.78;;;1.88;;
7675;SDS011;3880;51.464;-2.566;2022-07-10T13:06:52;5.30;;;2.53;;
7675;SDS011;3880;51.464;-2.566;2022-07-10T13:09:20;2.55;;;2.35;;
7675;SDS011;3880;51.464;-2.566;2022-07-10T13:11:52;4.00;;;2.30;;
7675;SDS011;3880;51.464;-2.566;2022-07-10T13:14:33;2.10;;;2.00;;
7675;SDS011;3880;51.464;-2.566;2022-07-10T13:17:00;2.17;;;2.05;;
7675;SDS011;3880;51.464;-2.566;2022-07-10T13:19:31;1.90;;;1.80;;
7675;SDS011;3880;51.464;-2.566;2022-07-10T13:21:58;1.92;;;1.83;;
7675;SDS011;3880;51.464;-2.566;2022-07-10T13:24:25;2.45;;;1.95;;
7675;SDS011;3880;51.464;-2.566;2022-07-10T13:26:57;1.70;;;1.60;;
7675;SDS011;3880;51.464;-2.566;2022-07-10T13:29:24;2.08;;;1.98;;
7675;SDS011;3880;51.464;-2.566;2022-07-10T13:31:51;1.58;;;1.48;;
7675;SDS011;3880;51.464;-2.566;2022-07-10T13:34:18;1.60;;;1.50;;
7675;SDS011;3880;51.464;-2.566;2022-07-10T13:36:45;1.60;;;1.50;;
7675;SDS011;3880;51.464;-2.566;2022-07-10T13:39:12;3.45;;;2.50;;
7675;SDS011;3880;51.464;-2.566;2022-07-10T13:41:39;2.55;;;1.70;;
7675;SDS011;3880;51.464;-2.566;2022-07-10T13:44:07;2.13;;;1.90;;
7675;SDS011;3880;51.464;-2.566;2022-07-10T13:46:34;3.03;;;2.47;;
7675;SDS011;3880;51.464;-2.566;2022-07-10T13:49:04;2.10;;;2.00;;
7675;SDS011;3880;51.464;-2.566;2022-07-10T13:51:31;2.25;;;2.10;;
7675;SDS011;3880;51.464;-2.566;2022-07-10T13:53:59;2.47;;;1.83;;
7675;SDS011;3880;51.464;-2.566;2022-07-10T13:56:25;2.17;;;2.00;;
7675;SDS011;3880;51.464;-2.566;2022-07-10T13:58:54;2.08;;;1.98;;
7675;SDS011;3880;51.464;-2.566;2022-07-10T14:01:22;3.45;;;2.00;;
7675;SDS011;3880;51.464;-2.566;2022-07-10T14:03:50;2.33;;;2.10;;
7675;SDS011;3880;51.464;-2.566;2022-07-10T14:06:17;1.60;;;1.58;;
7675;SDS011;3880;51.464;-2.566;2022-07-10T14:09:03;2.00;;;1.90;;
7675;SDS011;3880;51.464;-2.566;2022-07-10T14:11:45;2.95;;;1.92;;
7675;SDS011;3880;51.464;-2.566;2022-07-10T14:14:12;2.50;;;2.00;;
7675;SDS011;3880;51.464;-2.566;2022-07-10T14:16:41;5.93;;;2.17;;
7675;SDS011;3880;51.464;-2.566;2022-07-10T14:19:08;2.38;;;2.17;;
7675;SDS011;3880;51.464;-2.566;2022-07-10T14:21:36;1.73;;;1.63;;
7675;SDS011;3880;51.464;-2.566;2022-07-10T14:24:04;2.05;;;1.95;;
7675;SDS011;3880;51.464;-2.566;2022-07-10T14:26:31;2.28;;;2.13;;
7675;SDS011;3880;51.464;-2.566;2022-07-10T14:29:01;2.13;;;2.03;;
7675;SDS011;3880;51.464;-2.566;2022-07-10T14:31:29;2.60;;;1.80;;
7675;SDS011;3880;51.464;-2.566;2022-07-10T14:33:58;3.60;;;1.75;;
7675;SDS011;3880;51.464;-2.566;2022-07-10T14:36:29;1.65;;;1.60;;
7675;SDS011;3880;51.464;-2.566;2022-07-10T14:38:56;3.72;;;2.00;;
7675;SDS011;3880;51.464;-2.566;2022-07-10T14:41:28;1.75;;;1.60;;
7675;SDS011;3880;51.464;-2.566;2022-07-10T14:44:02;3.30;;;1.70;;
7675;SDS011;3880;51.464;-2.566;2022-07-10T14:46:33;2.08;;;1.70;;
7675;SDS011;3880;51.464;-2.566;2022-07-10T14:49:02;1.52;;;1.42;;
7675;SDS011;3880;51.464;-2.566;2022-07-10T14:51:29;1.55;;;1.48;;
7675;SDS011;3880;51.464;-2.566;2022-07-10T14:53:56;1.63;;;1.50;;
7675;SDS011;3880;51.464;-2.566;2022-07-10T14:56:26;1.42;;;1.33;;
7675;SDS011;3880;51.464;-2.566;2022-07-10T14:58:53;2.88;;;1.30;;
7675;SDS011;3880;51.464;-2.566;2022-07-10T15:01:20;1.38;;;1.27;;
7675;SDS011;3880;51.464;-2.566;2022-07-10T15:03:47;1.58;;;1.48;;
7675;SDS011;3880;51.464;-2.566;2022-07-10T15:06:15;1.52;;;1.42;;
7675;SDS011;3880;51.464;-2.566;2022-07-10T15:08:42;1.23;;;1.10;;
7675;SDS011;3880;51.464;-2.566;2022-07-10T15:11:09;1.98;;;1.30;;
7675;SDS011;3880;51.464;-2.566;2022-07-10T15:13:36;3.25;;;1.48;;
7675;SDS011;3880;51.464;-2.566;2022-07-10T15:16:04;1.42;;;1.33;;
7675;SDS011;3880;51.464;-2.566;2022-07-10T15:18:31;1.13;;;1.13;;
7675;SDS011;3880;51.464;-2.566;2022-07-10T15:20:58;4.03;;;1.65;;
7675;SDS011;3880;51.464;-2.566;2022-07-10T15:23:26;1.00;;;1.00;;
7675;SDS011;3880;51.464;-2.566;2022-07-10T15:25:54;2.33;;;1.20;;
7675;SDS011;3880;51.464;-2.566;2022-07-10T15:28:21;1.20;;;1.20;;
7675;SDS011;3880;51.464;-2.566;2022-07-10T15:30:48;1.35;;;1.27;;
7675;SDS011;3880;51.464;-2.566;2022-07-10T15:33:15;2.10;;;1.33;;
7675;SDS011;3880;51.464;-2.566;2022-07-10T15:35:42;1.35;;;1.25;;